Hillsboro, Kentucky
Current Conditions -  °F | °C
As of 3:10 AM on Thursday 27 Nov 2014 (Local Time) from KSYM Reporting Station
Overcast Overcast  
Wind Chill: 27°   Ceiling: 7000
Heat Index: 32°   Visibility: 10mi
Dew Point: 28°   Wind: 5mph
Humidity: 87%   Direction: 320°NW
Pressure: 30.06"   Gusts: NA
Location:  38.29°N, 83.66°W
Report Text: KSYM 270810Z AUTO 32004KT 10SM OVC070 00/M02 A3006 RMK AO2
Loading
Personal Weather Stations






























Interactive Weather Map New forecast layout! Learn more

10-Day Weather Forecast

Advertisements
Track Severe Weather on mobile